createdAt,value
2017-12-04T00:00:05.364Z,19.07
2017-12-04T00:02:33.028Z,22.80
2017-12-04T00:05:00.703Z,19.10
2017-12-04T00:07:28.383Z,22.23
2017-12-04T00:09:56.032Z,22.80
2017-12-04T00:12:23.679Z,22.30
2017-12-04T00:14:51.384Z,21.33
2017-12-04T00:17:19.059Z,19.00
2017-12-04T00:19:46.759Z,22.47
2017-12-04T00:22:16.568Z,19.10
2017-12-04T00:24:44.190Z,22.43
2017-12-04T00:27:12.607Z,22.37
2017-12-04T00:29:40.290Z,18.63
2017-12-04T00:32:07.906Z,18.13
2017-12-04T00:34:35.548Z,18.27
2017-12-04T00:37:04.007Z,15.80
2017-12-04T00:39:31.647Z,19.07
2017-12-04T00:42:00.071Z,18.33
2017-12-04T00:44:28.502Z,17.57
2017-12-04T00:46:56.159Z,15.50
2017-12-04T00:49:23.834Z,17.87
2017-12-04T00:51:51.519Z,16.60
2017-12-04T00:54:19.169Z,16.20
2017-12-04T00:56:46.796Z,15.30
2017-12-04T00:59:14.532Z,17.90
2017-12-04T01:01:42.183Z,19.23
2017-12-04T01:04:09.827Z,15.37
2017-12-04T01:06:37.599Z,17.10
2017-12-04T01:09:05.979Z,15.50
2017-12-04T01:11:33.645Z,16.07
2017-12-04T01:14:01.327Z,19.30
2017-12-04T01:16:28.956Z,17.90
2017-12-04T01:18:57.347Z,17.70
2017-12-04T01:21:25.090Z,15.10
2017-12-04T01:23:53.487Z,16.70
2017-12-04T01:26:21.110Z,14.93
2017-12-04T01:28:48.779Z,15.40
2017-12-04T01:31:17.180Z,16.90
2017-12-04T01:33:44.814Z,19.63
2017-12-04T01:36:13.264Z,13.90
2017-12-04T01:38:40.906Z,21.10
2017-12-04T01:41:08.607Z,20.17
2017-12-04T01:43:37.112Z,14.97
2017-12-04T01:46:04.751Z,18.67
2017-12-04T01:48:33.255Z,18.33
2017-12-04T01:51:01.070Z,20.17
2017-12-04T01:53:28.711Z,21.53
2017-12-04T01:55:56.323Z,19.07
2017-12-04T01:58:24.853Z,19.60
2017-12-04T02:00:52.539Z,24.27
2017-12-04T02:03:20.207Z,17.90
2017-12-04T02:05:47.935Z,19.20
2017-12-04T02:08:15.628Z,20.63
2017-12-04T02:10:43.272Z,17.57
2017-12-04T02:13:10.952Z,20.00
2017-12-04T02:15:38.628Z,20.40
2017-12-04T02:18:07.031Z,18.30
2017-12-04T02:20:34.827Z,21.57
2017-12-04T02:23:02.526Z,17.50
2017-12-04T02:25:30.990Z,19.30
2017-12-04T02:27:58.799Z,22.67
2017-12-04T02:30:26.495Z,20.10
2017-12-04T02:32:54.200Z,19.73
2017-12-04T02:35:22.709Z,19.93
2017-12-04T02:37:50.430Z,18.57
2017-12-04T02:40:18.944Z,16.73
2017-12-04T02:42:46.736Z,18.90
2017-12-04T02:45:14.438Z,20.80
2017-12-04T02:47:42.979Z,18.40
2017-12-04T02:50:10.689Z,19.80
2017-12-04T02:52:39.156Z,16.80
2017-12-04T02:55:07.668Z,20.87
2017-12-04T02:57:35.376Z,19.13
2017-12-04T03:00:03.068Z,20.03
2017-12-04T03:02:30.731Z,22.03
2017-12-04T03:04:58.389Z,21.17
2017-12-04T03:07:26.056Z,18.97
2017-12-04T03:09:54.513Z,24.20
2017-12-04T03:12:22.150Z,28.73
2017-12-04T03:14:49.777Z,23.10
2017-12-04T03:17:17.522Z,23.20
2017-12-04T03:19:45.183Z,26.70
2017-12-04T03:22:12.877Z,24.83
2017-12-04T03:24:40.611Z,25.97
2017-12-04T03:27:08.313Z,25.03
2017-12-04T03:29:35.994Z,25.73
2017-12-04T03:32:03.756Z,30.63
2017-12-04T03:34:31.490Z,28.60
2017-12-04T03:36:59.168Z,25.03
2017-12-04T03:39:26.907Z,25.30
2017-12-04T03:41:54.599Z,23.50
2017-12-04T03:44:22.359Z,30.50
2017-12-04T03:46:49.972Z,29.40
2017-12-04T03:49:17.592Z,28.20
2017-12-04T03:51:46.066Z,26.03
2017-12-04T03:54:13.802Z,28.60
2017-12-04T03:56:41.485Z,30.10
2017-12-04T03:59:09.160Z,30.50
2017-12-04T04:01:37.585Z,27.23
2017-12-04T04:04:05.260Z,28.77
2017-12-04T04:06:32.944Z,30.13
2017-12-04T04:09:00.599Z,29.10
2017-12-04T04:11:28.239Z,31.67
2017-12-04T04:13:55.911Z,30.83
2017-12-04T04:16:23.534Z,26.37
2017-12-04T04:18:51.163Z,29.03
2017-12-04T04:21:18.839Z,27.70
2017-12-04T04:23:46.482Z,25.00
2017-12-04T04:26:14.867Z,27.57
2017-12-04T04:28:43.359Z,26.90
2017-12-04T04:31:11.026Z,26.73
2017-12-04T04:33:38.647Z,24.93
2017-12-04T04:36:07.092Z,25.03
2017-12-04T04:38:34.715Z,29.43
2017-12-04T04:41:02.419Z,28.10
2017-12-04T04:43:30.460Z,31.07
2017-12-04T04:45:58.094Z,31.10
2017-12-04T04:48:25.795Z,28.90
2017-12-04T04:50:53.527Z,29.23
2017-12-04T04:53:21.292Z,26.50
2017-12-04T04:55:48.974Z,25.87
2017-12-04T04:58:16.710Z,26.73
2017-12-04T05:00:44.363Z,26.73
2017-12-04T05:03:12.060Z,30.93
2017-12-04T05:05:39.759Z,25.90
2017-12-04T05:08:07.440Z,27.07
2017-12-04T05:10:35.879Z,30.30
2017-12-04T05:13:03.576Z,24.27
2017-12-04T05:15:32.049Z,25.57
2017-12-04T05:18:00.497Z,28.83
2017-12-04T05:20:28.280Z,24.10
2017-12-04T05:22:55.975Z,31.80
2017-12-04T05:25:23.643Z,25.43
2017-12-04T05:27:51.356Z,26.93
2017-12-04T05:30:18.988Z,27.00
2017-12-04T05:32:46.651Z,32.10
2017-12-04T05:35:14.341Z,30.53
2017-12-04T05:37:41.969Z,31.80
2017-12-04T05:40:09.579Z,28.20
2017-12-04T05:42:37.997Z,26.10
2017-12-04T05:45:05.684Z,37.40
2017-12-04T05:47:33.371Z,30.13
2017-12-04T05:50:01.772Z,26.03
2017-12-04T05:52:29.495Z,29.63
2017-12-04T05:54:57.157Z,25.70
2017-12-04T05:57:24.828Z,35.03
2017-12-04T05:59:52.508Z,29.90
2017-12-04T06:02:20.142Z,28.40
2017-12-04T06:04:47.826Z,27.43
2017-12-04T06:07:16.294Z,27.83
2017-12-04T06:09:44.687Z,27.47
2017-12-04T06:12:12.298Z,28.53
2017-12-04T06:14:39.989Z,25.10
2017-12-04T06:17:08.392Z,30.80
2017-12-04T06:19:36.027Z,34.03
2017-12-04T06:22:04.461Z,32.27
2017-12-04T06:24:32.091Z,28.13
2017-12-04T06:26:59.726Z,31.23
2017-12-04T06:29:28.179Z,30.80
2017-12-04T06:31:55.839Z,30.60
2017-12-04T06:34:23.505Z,28.57
2017-12-04T06:36:51.989Z,30.33
2017-12-04T06:39:19.631Z,28.90
2017-12-04T06:41:47.259Z,30.70
2017-12-04T06:44:14.951Z,25.83
2017-12-04T06:46:42.602Z,32.63
2017-12-04T06:49:10.282Z,32.77
2017-12-04T06:51:37.983Z,27.33
2017-12-04T06:54:05.692Z,26.60
2017-12-04T06:56:33.320Z,26.87
2017-12-04T06:59:00.983Z,26.77
2017-12-04T07:01:28.596Z,25.17
2017-12-04T07:03:56.248Z,21.00
2017-12-04T07:06:23.867Z,29.93
2017-12-04T07:08:51.548Z,32.40
2017-12-04T07:11:19.160Z,28.80
2017-12-04T07:13:47.543Z,25.33
2017-12-04T07:16:15.217Z,21.63
2017-12-04T07:18:42.835Z,20.47
2017-12-04T07:21:10.467Z,24.93
2017-12-04T07:23:38.148Z,23.90
2017-12-04T07:26:05.778Z,22.00
2017-12-04T07:28:33.395Z,23.63
2017-12-04T07:31:02.742Z,23.57
2017-12-04T07:33:30.440Z,24.10
2017-12-04T07:35:58.836Z,19.73
2017-12-04T07:38:27.280Z,23.03
2017-12-04T07:40:54.906Z,21.37
2017-12-04T07:43:22.547Z,18.00
2017-12-04T07:45:50.291Z,24.37
2017-12-04T07:48:17.908Z,21.07
2017-12-04T07:50:45.536Z,19.57
2017-12-04T07:53:13.225Z,19.43
2017-12-04T07:55:40.908Z,19.93
2017-12-04T07:58:08.614Z,22.07
2017-12-04T08:00:36.360Z,21.30
2017-12-04T08:03:04.806Z,22.97
2017-12-04T08:05:32.465Z,21.90
2017-12-04T08:08:00.253Z,23.97
2017-12-04T08:10:28.674Z,27.03
2017-12-04T08:12:56.525Z,22.77
2017-12-04T08:15:24.280Z,21.73
2017-12-04T08:17:51.948Z,23.73
2017-12-04T08:20:19.671Z,22.03
2017-12-04T08:22:48.136Z,22.70
2017-12-04T08:25:15.829Z,26.43
2017-12-04T08:27:44.539Z,22.03
2017-12-04T08:30:12.190Z,19.57
2017-12-04T08:32:39.851Z,21.07
2017-12-04T08:35:07.592Z,18.77
2017-12-04T08:37:35.976Z,22.00
2017-12-04T08:40:03.679Z,20.70
2017-12-04T08:42:31.367Z,17.50
2017-12-04T08:44:59.035Z,17.37
2017-12-04T08:47:27.419Z,17.00
2017-12-04T08:49:55.108Z,21.27
2017-12-04T08:52:22.731Z,19.80
2017-12-04T08:54:50.350Z,15.50
2017-12-04T08:57:18.009Z,17.87
2017-12-04T08:59:45.631Z,16.00
2017-12-04T09:02:13.291Z,17.03
2017-12-04T09:04:40.968Z,20.80
2017-12-04T09:07:08.612Z,15.20
2017-12-04T09:09:36.233Z,16.33
2017-12-04T09:12:03.932Z,16.33
2017-12-04T09:14:31.586Z,17.60
2017-12-04T09:17:00.100Z,17.23
2017-12-04T09:19:27.765Z,15.70
2017-12-04T09:21:55.411Z,13.20
2017-12-04T09:24:23.126Z,11.40
2017-12-04T09:26:50.854Z,15.47
2017-12-04T09:29:19.140Z,13.77
2017-12-04T09:31:46.782Z,14.27
2017-12-04T09:34:14.476Z,15.70
2017-12-04T09:36:42.260Z,14.23
2017-12-04T09:39:10.703Z,13.50
2017-12-04T09:41:38.414Z,15.13
2017-12-04T09:44:06.868Z,13.30
2017-12-04T09:46:35.315Z,13.30
2017-12-04T09:49:03.035Z,13.47
2017-12-04T09:51:30.685Z,11.80
2017-12-04T09:53:59.199Z,12.30
2017-12-04T09:56:26.928Z,12.93
2017-12-04T09:58:55.345Z,14.67
2017-12-04T10:01:23.830Z,12.93
2017-12-04T10:03:51.480Z,15.73
2017-12-04T10:06:19.196Z,15.07
2017-12-04T10:08:47.704Z,14.70
2017-12-04T10:11:15.405Z,15.00
2017-12-04T10:13:43.176Z,17.63
2017-12-04T10:16:10.838Z,21.13
2017-12-04T10:18:39.034Z,17.73
2017-12-04T10:21:07.543Z,18.47
2017-12-04T10:23:35.202Z,18.53
2017-12-04T10:26:03.111Z,15.20
2017-12-04T10:28:30.784Z,16.10
2017-12-04T10:30:58.463Z,17.47
2017-12-04T10:33:26.936Z,17.40
2017-12-04T10:35:54.611Z,16.10
2017-12-04T10:38:23.082Z,18.03
2017-12-04T10:40:51.550Z,14.90
2017-12-04T10:43:19.211Z,21.77
2017-12-04T10:45:46.903Z,21.13
2017-12-04T10:48:14.722Z,14.20
2017-12-04T10:50:43.215Z,17.23
2017-12-04T10:53:11.629Z,16.77
2017-12-04T10:55:39.914Z,18.83
2017-12-04T10:58:08.423Z,13.73
2017-12-04T11:00:36.852Z,13.30
2017-12-04T11:03:04.528Z,15.40
2017-12-04T11:05:32.192Z,18.67
2017-12-04T11:07:59.952Z,17.63
2017-12-04T11:10:27.643Z,15.57
2017-12-04T11:12:55.331Z,17.07
2017-12-04T11:15:23.038Z,14.07
2017-12-04T11:17:50.703Z,15.43
2017-12-04T11:20:18.387Z,12.97
2017-12-04T11:22:46.060Z,15.80
2017-12-04T11:25:13.783Z,15.50
2017-12-04T11:27:41.441Z,15.13
2017-12-04T11:30:09.156Z,15.43
2017-12-04T11:32:36.786Z,14.23
2017-12-04T11:35:04.451Z,13.10
2017-12-04T11:37:32.152Z,12.90
2017-12-04T11:40:00.645Z,13.53
2017-12-04T11:42:29.023Z,12.73
2017-12-04T11:44:56.848Z,15.30
2017-12-04T11:47:24.495Z,13.80
2017-12-04T11:49:52.135Z,12.70
2017-12-04T11:52:19.828Z,12.20
2017-12-04T11:54:47.512Z,14.70
2017-12-04T11:57:15.950Z,12.73
2017-12-04T11:59:43.605Z,13.07
2017-12-04T12:02:11.302Z,14.63
2017-12-04T12:04:38.927Z,11.90
2017-12-04T12:07:06.982Z,9.67
2017-12-04T12:09:34.659Z,9.70
2017-12-04T12:12:02.339Z,9.70
2017-12-04T12:14:30.096Z,13.43
2017-12-04T12:16:57.796Z,12.93
2017-12-04T12:19:26.235Z,11.20
2017-12-04T12:21:53.924Z,11.13
2017-12-04T12:24:22.320Z,11.57
2017-12-04T12:26:49.986Z,8.40
2017-12-04T12:29:17.654Z,9.47
2017-12-04T12:31:45.292Z,9.10
2017-12-04T12:34:13.996Z,10.90
2017-12-04T12:36:41.631Z,9.40
2017-12-04T12:39:10.008Z,10.90
2017-12-04T12:41:38.450Z,10.83
2017-12-04T12:44:06.081Z,9.43
2017-12-04T12:46:33.719Z,12.03
2017-12-04T12:49:01.468Z,10.37
2017-12-04T12:51:29.108Z,8.70
2017-12-04T12:53:56.787Z,9.73
2017-12-04T12:56:24.516Z,10.97
2017-12-04T12:58:52.159Z,11.03
2017-12-04T13:01:19.850Z,10.63
2017-12-04T13:03:48.244Z,11.37
2017-12-04T13:06:16.870Z,13.63
2017-12-04T13:08:44.572Z,11.37
2017-12-04T13:11:12.187Z,12.73
2017-12-04T13:13:39.817Z,11.57
2017-12-04T13:16:07.504Z,13.67
2017-12-04T13:18:35.895Z,13.57
2017-12-04T13:21:04.116Z,12.13
2017-12-04T13:23:33.090Z,15.20
2017-12-04T13:26:01.165Z,14.17
2017-12-04T13:28:28.855Z,11.90
2017-12-04T13:30:56.600Z,12.57
2017-12-04T13:33:36.943Z,15.37
2017-12-04T13:36:16.296Z,15.07
2017-12-04T13:38:44.729Z,15.43
2017-12-04T13:41:12.343Z,17.87
2017-12-04T13:43:39.947Z,15.17
2017-12-04T13:46:07.690Z,15.80
2017-12-04T13:48:35.346Z,17.70
2017-12-04T13:51:03.006Z,16.87
2017-12-04T13:53:30.802Z,16.93
2017-12-04T13:55:58.475Z,16.23
2017-12-04T13:58:26.107Z,19.53
2017-12-04T14:00:53.802Z,14.37
2017-12-04T14:03:22.213Z,16.77
2017-12-04T14:05:49.882Z,18.50
2017-12-04T14:08:17.541Z,17.43
2017-12-04T14:10:45.365Z,18.13
2017-12-04T14:13:13.014Z,17.53
2017-12-04T14:15:40.693Z,16.57
2017-12-04T14:18:09.118Z,15.10
2017-12-04T14:20:36.785Z,19.83
2017-12-04T14:23:04.411Z,16.53
2017-12-04T14:25:32.111Z,18.13
2017-12-04T14:27:59.732Z,19.30
2017-12-04T14:30:27.408Z,17.60
2017-12-04T14:32:55.102Z,18.60
2017-12-04T14:35:22.729Z,19.17
2017-12-04T14:37:50.368Z,21.90
2017-12-04T14:40:18.824Z,16.20
2017-12-04T14:42:46.480Z,23.63
2017-12-04T14:45:14.128Z,21.30
2017-12-04T14:47:41.818Z,20.20
2017-12-04T14:50:10.280Z,18.30
2017-12-04T14:52:37.891Z,22.10
2017-12-04T14:55:05.649Z,20.77
2017-12-04T14:57:33.331Z,17.80
2017-12-04T15:00:01.019Z,19.77
2017-12-04T15:02:28.759Z,21.63
2017-12-04T15:04:56.494Z,18.27
2017-12-04T15:07:24.222Z,19.57
2017-12-04T15:09:52.783Z,19.27
2017-12-04T15:12:20.490Z,19.13
2017-12-04T15:14:48.264Z,21.97
2017-12-04T15:17:16.772Z,19.97
2017-12-04T15:19:44.461Z,18.30
2017-12-04T15:22:12.185Z,20.37
2017-12-04T15:24:39.875Z,18.70
2017-12-04T15:27:07.561Z,19.73
2017-12-04T15:29:36.076Z,20.23
2017-12-04T15:32:04.523Z,18.03
2017-12-04T15:34:32.987Z,19.63
2017-12-04T15:37:01.472Z,19.40
2017-12-04T15:39:29.919Z,19.33
2017-12-04T15:41:57.604Z,18.40
2017-12-04T15:44:26.091Z,19.00
2017-12-04T15:46:54.548Z,18.00
2017-12-04T15:49:22.299Z,19.63
2017-12-04T15:51:49.979Z,23.77
2017-12-04T15:54:17.634Z,19.70
2017-12-04T15:56:45.424Z,21.17
2017-12-04T15:59:13.848Z,19.97
2017-12-04T16:01:41.500Z,19.50
2017-12-04T16:04:09.352Z,20.10
2017-12-04T16:06:37.158Z,18.90
2017-12-04T16:09:04.872Z,22.53
2017-12-04T16:11:32.584Z,17.83
2017-12-04T16:14:00.243Z,21.23
2017-12-04T16:16:27.924Z,19.67
2017-12-04T16:18:56.405Z,20.73
2017-12-04T16:21:24.811Z,25.50
2017-12-04T16:23:52.511Z,19.30
2017-12-04T16:26:20.179Z,20.57
2017-12-04T16:28:47.847Z,18.63
2017-12-04T16:31:15.503Z,22.87
2017-12-04T16:33:43.240Z,19.23
2017-12-04T16:36:10.943Z,19.70
2017-12-04T16:38:39.397Z,25.23
2017-12-04T16:41:07.573Z,20.63
2017-12-04T16:46:42.029Z,24.40
2017-12-04T16:49:13.001Z,25.03
2017-12-04T16:51:41.885Z,19.70
2017-12-04T16:59:21.922Z,19.27
2017-12-04T17:01:49.719Z,20.70
2017-12-04T17:04:19.034Z,15.00
2017-12-04T17:06:46.816Z,18.40
2017-12-04T17:09:14.572Z,22.30
2017-12-04T17:11:42.390Z,18.23
2017-12-04T17:14:11.725Z,19.43
2017-12-04T17:16:39.517Z,21.97
2017-12-04T17:19:07.229Z,18.50
2017-12-04T17:21:35.779Z,19.30
2017-12-04T17:24:03.604Z,17.17
2017-12-04T17:26:31.351Z,17.27
2017-12-04T17:28:59.474Z,19.63
2017-12-04T17:31:27.835Z,18.53
2017-12-04T17:33:55.785Z,21.40
2017-12-04T17:36:23.733Z,19.27
2017-12-04T17:38:51.905Z,19.77
2017-12-04T17:41:19.760Z,18.53
2017-12-04T17:43:47.515Z,24.13
2017-12-04T17:46:16.011Z,17.80
2017-12-04T17:48:43.778Z,16.83
2017-12-04T17:51:11.532Z,20.13
2017-12-04T17:53:39.267Z,20.20
2017-12-04T17:56:07.004Z,19.90
2017-12-04T17:58:34.818Z,21.93
2017-12-04T18:01:02.502Z,19.00
2017-12-04T18:03:30.248Z,20.30
2017-12-04T18:05:58.036Z,52.77
2017-12-04T18:08:25.884Z,24.13
2017-12-04T18:10:53.664Z,19.57
2017-12-04T18:13:21.375Z,21.10
2017-12-04T18:15:49.872Z,23.03
2017-12-04T18:18:17.555Z,21.07
2017-12-04T18:20:45.312Z,21.80
2017-12-04T18:23:13.082Z,23.33
2017-12-04T18:25:40.806Z,20.43
2017-12-04T18:28:09.324Z,25.40
2017-12-04T18:30:37.409Z,22.47
2017-12-04T18:33:05.192Z,21.97
2017-12-04T18:35:33.323Z,26.13
2017-12-04T18:38:01.222Z,29.33
2017-12-04T18:40:29.220Z,19.80
2017-12-04T18:42:57.031Z,20.47
2017-12-04T18:45:24.816Z,29.17
2017-12-04T18:47:52.825Z,24.43
2017-12-04T18:50:20.539Z,23.93
2017-12-04T18:52:48.291Z,32.20
2017-12-04T18:55:16.093Z,27.63
2017-12-04T18:57:44.767Z,28.43
2017-12-04T19:00:13.489Z,31.30
2017-12-04T19:02:41.403Z,26.17
2017-12-04T19:05:09.466Z,31.70
2017-12-04T19:07:37.306Z,40.97
2017-12-04T19:10:05.263Z,22.97
2017-12-04T19:12:33.585Z,24.07
2017-12-04T19:15:01.600Z,24.97
2017-12-04T19:17:29.574Z,29.70
2017-12-04T19:19:57.678Z,29.00
2017-12-04T19:22:25.674Z,23.80
2017-12-04T19:24:54.203Z,31.13
2017-12-04T19:27:22.415Z,28.87
2017-12-04T19:29:50.928Z,25.33
2017-12-04T19:32:19.429Z,26.17
2017-12-04T19:34:47.244Z,33.53
2017-12-04T19:37:15.927Z,23.40
2017-12-04T19:39:44.247Z,23.60
2017-12-04T19:42:12.749Z,25.50
2017-12-04T19:44:40.498Z,27.77
2017-12-04T19:47:08.274Z,25.30
2017-12-04T19:49:36.123Z,24.07
2017-12-04T19:52:05.372Z,27.50
2017-12-04T19:54:33.031Z,27.60
2017-12-04T19:57:00.751Z,29.37
2017-12-04T19:59:28.451Z,22.67
2017-12-04T20:01:56.219Z,25.87
2017-12-04T20:04:23.939Z,24.90
2017-12-04T20:06:52.485Z,26.40
2017-12-04T20:09:20.629Z,31.63
2017-12-04T20:11:48.375Z,22.73
2017-12-04T20:14:16.456Z,28.80
2017-12-04T20:16:44.304Z,24.87
2017-12-04T20:19:12.078Z,28.77
2017-12-04T20:21:39.833Z,24.43
2017-12-04T20:24:07.674Z,29.80
2017-12-04T20:26:35.775Z,29.20
2017-12-04T20:29:04.352Z,27.33
2017-12-04T20:31:32.107Z,27.40
2017-12-04T20:34:00.193Z,26.00
2017-12-04T20:36:28.699Z,32.20
2017-12-04T20:38:57.370Z,29.80
2017-12-04T20:41:25.198Z,30.40
2017-12-04T20:43:53.090Z,30.83
2017-12-04T20:46:21.084Z,30.00
2017-12-04T20:48:48.828Z,27.80
2017-12-04T20:51:16.507Z,29.30
2017-12-04T20:53:44.788Z,43.10
2017-12-04T20:56:12.603Z,32.80
2017-12-04T20:58:40.832Z,27.20
2017-12-04T21:01:08.568Z,33.10
2017-12-04T21:03:37.474Z,29.33
2017-12-04T21:06:05.246Z,25.63
2017-12-04T21:08:45.127Z,31.37
2017-12-04T21:11:25.014Z,25.10
2017-12-04T21:14:05.701Z,35.37
2017-12-04T21:16:45.971Z,28.87
2017-12-04T21:19:14.908Z,28.00
2017-12-04T21:21:43.723Z,28.20
2017-12-04T21:24:11.445Z,25.13
2017-12-04T21:26:39.207Z,29.30
2017-12-04T21:29:07.607Z,28.57
2017-12-04T21:31:36.169Z,23.63
2017-12-04T21:34:04.248Z,29.00
2017-12-04T21:36:32.058Z,26.80
2017-12-04T21:38:59.765Z,38.50
2017-12-04T21:41:27.476Z,29.50
2017-12-04T21:43:56.183Z,23.83
2017-12-04T21:46:24.232Z,22.60
2017-12-04T21:48:53.064Z,31.67
2017-12-04T21:51:20.855Z,28.90
2017-12-04T21:53:50.383Z,26.53
2017-12-04T21:56:18.578Z,34.50
2017-12-04T21:58:46.908Z,29.43
2017-12-04T22:01:15.802Z,28.63
2017-12-04T22:03:44.389Z,27.87
2017-12-04T22:06:12.471Z,25.57
2017-12-04T22:08:40.401Z,27.37
2017-12-04T22:11:08.516Z,25.67
2017-12-04T22:13:36.527Z,26.23
2017-12-04T22:16:04.342Z,26.30
2017-12-04T22:18:32.887Z,28.83
2017-12-04T22:21:00.889Z,28.60
2017-12-04T22:23:28.816Z,23.33
2017-12-04T22:25:56.740Z,27.27
2017-12-04T22:28:24.569Z,30.93
2017-12-04T22:30:53.132Z,24.73
2017-12-04T22:33:21.041Z,22.90
2017-12-04T22:35:49.099Z,23.83
2017-12-04T22:38:17.011Z,32.57
2017-12-04T22:40:44.780Z,30.10
2017-12-04T22:43:12.491Z,28.47
2017-12-04T22:45:40.215Z,28.63
2017-12-04T22:48:08.120Z,28.97
2017-12-04T22:50:35.857Z,28.07
2017-12-04T22:53:04.381Z,36.57
2017-12-04T22:55:32.128Z,28.70
2017-12-04T22:57:59.866Z,31.70
2017-12-04T23:00:30.447Z,34.80
2017-12-04T23:02:59.112Z,33.23
2017-12-04T23:05:26.864Z,30.73
2017-12-04T23:07:54.579Z,30.50
2017-12-04T23:10:24.044Z,32.33
2017-12-04T23:12:51.790Z,27.23
2017-12-04T23:15:19.538Z,26.83
2017-12-04T23:17:47.368Z,24.63
2017-12-04T23:20:15.071Z,23.50
2017-12-04T23:22:42.922Z,25.00
2017-12-04T23:25:11.402Z,21.57
2017-12-04T23:27:39.911Z,27.60
2017-12-04T23:30:07.711Z,26.97
2017-12-04T23:32:35.391Z,23.40
2017-12-04T23:35:03.116Z,26.27
2017-12-04T23:37:30.846Z,25.07
2017-12-04T23:39:58.573Z,27.60
2017-12-04T23:42:27.404Z,32.33
2017-12-04T23:44:55.326Z,29.17
2017-12-04T23:47:23.750Z,24.60
2017-12-04T23:49:51.391Z,24.80
2017-12-04T23:52:19.118Z,30.07
2017-12-04T23:54:46.750Z,24.47
2017-12-04T23:57:14.529Z,27.30
2017-12-04T23:59:42.187Z,22.63
